Southbridge, MA

1:40 AM EDT on March 31, 2015 (GMT -0400)
Windham | | Change Station
CLOSE
Current Station
Airport
Location: Willimantic,
Elevation: 246 ft
Nearby Weather Stations

Elev 246 ft 41.74 °N, 72.18 °W | Updated 48 minutes ago

Partly Cloudy
Partly Cloudy
38 °F
Feels Like 36 °F
N
4
Wind Variable Wind from WSW

Today
High -- | Low -- °F
--% Chance of Precip.
Yesterday
High -- | Low -- °F
Precip. -- in
6:32 AM 7:12 PM
Waxing Gibbous, 84% visible
Pressure 29.78 in
Visibility 10.0 miles
Clouds Few 4900 ft
Scattered Clouds 6000 ft
Windchill 36 °F
Dew Point 27 °F
Humidity 65%
Rainfall 0.00 in
Snow Depth Not available.
UV 0 out of 12
Pollen 7.20 out of 12
Air Quality Not available.
Flu Activity Not available.
METAR KIJD 310452Z AUTO 24003KT 10SM FEW049 SCT060 03/M03 A2977 RMK AO2 SLP084 T00331028 400831044

More Conditions Fewer Conditions

Pressure 29.78 in
Visibility 10.0 miles
Clouds Few 4900 ft
Scattered Clouds 6000 ft
Windchill 36 °F
Dew Point 27 °F
Humidity 65%
Rainfall 0.00 in
Snow Depth Not available.
UV 0 out of 12
Pollen 7.20 out of 12
Air Quality Not available.
Flu Activity Not available.
METAR KIJD 310452Z AUTO 24003KT 10SM FEW049 SCT060 03/M03 A2977 RMK AO2 SLP084 T00331028 400831044

More Conditions Fewer Conditions

10-Day Weather Forecast

Almanac

Astronomy

Mar. 31, 2015 Rise Set
Actual Time
Civil Twilight
Nautical Twilight
Astronomical Twilight
Moon
Length of Visible Light
Length of Day
Tomorrow will be .
, % of the Moon is Illuminated

Today's Extremes

State Highs State Lows

Community

WunderPhotos

Upload Photos

1,809,724 photos uploaded!

WunderBlogs® & News

Nearby

Air Quality

  Air Quality AQ Index Pollutant
Not available.

Snow Depth

Station Depth Elevation

Earthquake Activity

City Distance Mag. Time & Date
Minimum magnitude displayed is 2.5.

Coastal Water Temperatures

Place Temperature

Stations

Nearby Weather Stations

Station Location Temp. Windchill Dew Point Humidity Wind Precip. Elev Updated Type